createdAt,value
2024-02-14T00:05:32.896Z,51.1
2024-02-14T00:11:11.839Z,51.1
2024-02-14T00:16:19.944Z,51
2024-02-14T00:21:28.633Z,50.9
2024-02-14T00:27:07.530Z,50.9
2024-02-14T00:32:48.169Z,50.9
2024-02-14T00:38:13.513Z,50.9
2024-02-14T00:43:36.665Z,50.8
2024-02-14T00:49:01.893Z,50.8
2024-02-14T00:54:41.641Z,50.8
2024-02-14T01:00:20.512Z,50.7
2024-02-14T01:06:00.569Z,50.6
2024-02-14T01:11:39.993Z,50.6
2024-02-14T01:17:03.663Z,50.6
2024-02-14T08:10:13.857Z,52
2024-02-14T08:26:51.543Z,51.9
2024-02-14T08:32:31.003Z,51.9
2024-02-14T08:38:18.299Z,51.8
2024-02-14T08:43:58.477Z,51.8
2024-02-14T08:49:43.110Z,51.8
2024-02-14T08:55:26.738Z,51.7
2024-02-14T09:01:21.428Z,51.7
2024-02-14T09:07:01.775Z,51.6
2024-02-14T09:12:41.089Z,51.6
2024-02-14T09:18:21.238Z,51.6
2024-02-14T09:24:02.072Z,51.5
2024-02-14T09:29:40.779Z,51.4
2024-02-14T09:35:19.754Z,51.4
2024-02-14T09:41:00.698Z,51.4
2024-02-14T09:46:44.152Z,51.4
2024-02-14T09:52:24.704Z,51.3
2024-02-14T09:58:04.169Z,51.3
2024-02-14T10:03:44.720Z,51.3
2024-02-14T10:09:37.008Z,51.2
2024-02-14T10:15:01.540Z,51.2
2024-02-14T10:20:44.282Z,51.1
2024-02-14T10:26:24.014Z,51.1
2024-02-14T10:32:08.916Z,51.1
2024-02-14T10:38:02.570Z,51.1
2024-02-14T10:43:44.606Z,50.9
2024-02-14T10:49:25.274Z,50.9
2024-02-14T10:55:04.362Z,50.9
2024-02-14T11:00:43.232Z,50.9
2024-02-14T11:06:09.300Z,50.8
2024-02-14T11:11:50.197Z,50.8
2024-02-14T11:17:28.707Z,50.8
2024-02-14T11:23:11.237Z,50.7
2024-02-14T11:29:02.368Z,50.7
2024-02-14T11:34:46.005Z,50.6
2024-02-14T11:40:25.409Z,50.6
2024-02-14T11:46:07.619Z,50.6
2024-02-14T11:51:49.963Z,50.6
2024-02-14T11:57:29.177Z,50.5
2024-02-14T12:03:10.104Z,50.4
2024-02-14T12:08:50.229Z,50.4
2024-02-14T12:14:30.017Z,50.4
2024-02-14T12:20:10.870Z,50.3
2024-02-14T12:25:50.027Z,50.3
2024-02-14T12:31:34.149Z,50.3
2024-02-14T12:37:17.574Z,50.3
2024-02-14T12:42:56.034Z,50.2
2024-02-14T12:48:35.377Z,50.2
2024-02-14T12:54:14.997Z,50.1
2024-02-14T12:59:53.272Z,50.1
2024-02-14T13:05:33.250Z,50.1
2024-02-14T13:11:13.817Z,50
2024-02-14T13:16:52.823Z,50
2024-02-14T13:22:34.361Z,49.9
2024-02-14T13:28:12.648Z,49.9
2024-02-14T13:33:36.446Z,49.9
2024-02-14T13:39:16.590Z,49.9
2024-02-14T13:44:57.868Z,49.8
2024-02-14T13:50:40.297Z,49.8
2024-02-14T13:56:19.951Z,49.8
2024-02-14T14:01:58.476Z,49.7
2024-02-14T14:07:46.010Z,49.7
2024-02-14T14:13:32.909Z,49.6
2024-02-14T14:19:16.658Z,49.6
2024-02-14T14:24:57.904Z,49.6
2024-02-14T14:30:40.597Z,49.5
2024-02-14T14:36:25.150Z,49.5
2024-02-14T14:42:06.963Z,49.4
2024-02-14T14:47:30.668Z,49.4
2024-02-14T14:53:13.383Z,49.4
2024-02-14T14:58:59.167Z,49.3
2024-02-14T15:04:39.104Z,49.3
2024-02-14T15:10:05.131Z,49.3
2024-02-14T15:15:46.285Z,49.3
2024-02-14T15:21:28.416Z,49.2
2024-02-14T15:27:08.603Z,49.2
2024-02-14T15:32:47.862Z,49.1
2024-02-14T15:38:28.536Z,49.1
2024-02-14T15:44:07.234Z,49.1
2024-02-14T15:49:31.359Z,49.1
2024-02-14T15:54:55.769Z,49
2024-02-14T16:00:34.378Z,48.9
2024-02-14T16:06:14.577Z,48.9
2024-02-14T16:11:53.287Z,48.9
2024-02-14T16:17:32.827Z,48.9
2024-02-14T16:23:28.706Z,48.8
2024-02-14T16:29:07.708Z,48.8
2024-02-14T16:34:47.468Z,48.8
2024-02-14T16:40:41.982Z,48.8
2024-02-14T16:46:23.723Z,48.7
2024-02-14T16:52:06.868Z,48.6
2024-02-14T16:57:49.281Z,48.6
2024-02-14T17:03:18.128Z,48.6
2024-02-14T17:09:08.021Z,48.4
2024-02-14T17:14:50.661Z,48.4
2024-02-14T17:20:15.990Z,48.4
2024-02-14T17:26:03.926Z,48.3
2024-02-14T17:31:42.554Z,48.3
2024-02-14T17:37:36.540Z,48.3
2024-02-14T17:42:59.231Z,48.3
2024-02-14T17:48:38.607Z,48.2
2024-02-14T17:54:18.101Z,48.2
2024-02-14T17:59:56.689Z,48.1
2024-02-14T18:05:38.448Z,48.1
2024-02-14T18:11:05.210Z,48.1
2024-02-14T18:16:43.472Z,48
2024-02-14T18:22:07.451Z,48
2024-02-14T18:27:47.976Z,48
2024-02-14T18:33:29.715Z,47.9
2024-02-14T18:38:54.255Z,47.9
2024-02-14T18:44:32.383Z,47.9
2024-02-14T18:50:12.256Z,47.9
2024-02-14T18:55:50.768Z,47.8
2024-02-14T19:01:29.594Z,47.8
2024-02-14T19:07:11.100Z,47.8
2024-02-14T19:12:49.512Z,47.7
2024-02-14T19:18:42.208Z,47.6
2024-02-14T19:24:21.657Z,47.6
2024-02-14T19:30:00.758Z,47.6
